createdAt,value
2023-05-11T00:02:23.251Z,32.33
2023-05-11T00:07:24.952Z,21.67
2023-05-11T00:12:26.677Z,25.40
2023-05-11T00:17:29.763Z,35.37
2023-05-11T00:22:31.563Z,26.97
2023-05-11T00:27:33.326Z,24.60
2023-05-11T00:32:36.817Z,27.47
2023-05-11T00:37:38.698Z,30.17
2023-05-11T00:42:40.407Z,25.57
2023-05-11T00:47:43.450Z,21.43
2023-05-11T00:52:45.277Z,22.03
2023-05-11T00:57:46.985Z,21.90
2023-05-11T01:02:50.232Z,15.90
2023-05-11T01:07:54.923Z,17.03
2023-05-11T01:12:59.182Z,18.83
2023-05-11T01:18:07.941Z,25.77
2023-05-11T01:23:16.836Z,23.40
2023-05-11T01:28:40.962Z,25.53
2023-05-11T01:33:47.703Z,26.80
2023-05-11T01:38:49.444Z,28.87
2023-05-11T01:43:53.647Z,26.90
2023-05-11T01:48:56.958Z,24.30
2023-05-11T01:53:58.731Z,23.63
2023-05-11T01:59:00.433Z,24.60
2023-05-11T02:04:04.052Z,22.23
2023-05-11T02:09:05.757Z,22.90
2023-05-11T02:14:09.045Z,21.47
2023-05-11T02:19:12.355Z,20.63
2023-05-11T02:24:14.106Z,25.53
2023-05-11T02:29:16.528Z,20.60
2023-05-11T02:34:23.322Z,65.23
2023-05-11T02:39:27.031Z,30.40
2023-05-11T02:44:31.667Z,22.70
2023-05-11T02:49:35.906Z,24.53
2023-05-11T02:54:37.730Z,24.03
2023-05-11T02:59:39.711Z,23.93
2023-05-11T03:04:42.976Z,20.70
2023-05-11T03:09:44.799Z,18.97
2023-05-11T03:14:46.688Z,21.57
2023-05-11T03:19:49.891Z,18.00
2023-05-11T03:24:52.315Z,18.43
2023-05-11T03:29:54.647Z,18.30
2023-05-11T03:34:58.138Z,21.23
2023-05-11T03:40:00.290Z,20.10
2023-05-11T03:45:07.956Z,18.67
2023-05-11T03:50:11.401Z,19.10
2023-05-11T03:55:13.324Z,20.33
2023-05-11T04:00:16.467Z,19.47
2023-05-11T04:05:20.310Z,19.67
2023-05-11T04:10:22.549Z,18.57
2023-05-11T04:15:24.294Z,20.10
2023-05-11T04:20:27.403Z,21.43
2023-05-11T04:25:29.132Z,22.67
2023-05-11T04:30:30.810Z,27.60
2023-05-11T04:35:33.840Z,23.70
2023-05-11T04:40:36.129Z,26.40
2023-05-11T04:45:38.123Z,27.10
2023-05-11T04:50:41.300Z,25.37
2023-05-11T04:55:43.114Z,25.07
2023-05-11T05:00:45.355Z,25.63
2023-05-11T05:05:49.130Z,24.83
2023-05-11T05:10:51.196Z,27.00
2023-05-11T05:15:53.328Z,26.80
2023-05-11T05:20:56.337Z,27.93
2023-05-11T05:26:00.048Z,27.77
2023-05-11T05:31:01.966Z,30.37
2023-05-11T05:36:05.722Z,29.50
2023-05-11T05:41:07.527Z,28.27
2023-05-11T05:46:13.374Z,29.40
2023-05-11T05:51:16.610Z,33.73
2023-05-11T05:56:18.515Z,30.97
2023-05-11T06:01:20.440Z,31.17
2023-05-11T06:06:23.532Z,30.77
2023-05-11T06:11:25.424Z,31.80
2023-05-11T06:16:28.124Z,34.50
2023-05-11T06:21:31.311Z,33.33
2023-05-11T06:26:33.789Z,36.10
2023-05-11T06:31:35.596Z,35.40
2023-05-11T06:36:38.760Z,36.23
2023-05-11T06:41:41.618Z,36.80
2023-05-11T06:46:43.503Z,36.73
2023-05-11T06:51:46.601Z,38.67
2023-05-11T06:56:48.942Z,36.67
2023-05-11T07:01:50.864Z,44.07
2023-05-11T07:06:54.330Z,39.20
2023-05-11T07:11:56.097Z,40.20
2023-05-11T07:16:57.857Z,38.10
2023-05-11T07:22:02.017Z,33.37
2023-05-11T07:27:03.865Z,31.97
2023-05-11T07:32:05.668Z,30.90
2023-05-11T07:37:08.763Z,27.93
2023-05-11T07:42:10.560Z,28.17
2023-05-11T07:47:13.307Z,27.43
2023-05-11T07:52:16.423Z,29.90
2023-05-11T07:57:18.854Z,29.07
2023-05-11T08:02:20.640Z,25.50
2023-05-11T08:07:23.763Z,29.60
2023-05-11T08:12:25.533Z,27.10
2023-05-11T08:17:27.283Z,28.17
2023-05-11T08:22:30.878Z,28.27
2023-05-11T08:27:32.589Z,28.03
2023-05-11T08:32:50.176Z,37.57
2023-05-11T08:37:58.398Z,39.20
2023-05-11T08:43:00.211Z,44.70
2023-05-11T08:48:03.183Z,44.10
2023-05-11T08:53:06.189Z,43.27
2023-05-11T08:58:08.251Z,46.33
2023-05-11T09:03:10.118Z,39.70
2023-05-11T09:08:13.513Z,35.83
2023-05-11T09:13:15.335Z,32.40
2023-05-11T09:18:17.023Z,35.33
2023-05-11T09:23:20.877Z,33.50
2023-05-11T09:28:25.604Z,34.90
2023-05-11T09:33:27.658Z,30.67
2023-05-11T09:38:30.749Z,34.67
2023-05-11T09:43:33.417Z,34.53
2023-05-11T09:48:35.763Z,34.93
2023-05-11T09:53:41.158Z,36.50
2023-05-11T09:58:47.441Z,35.70
2023-05-11T10:03:51.028Z,31.73
2023-05-11T10:08:54.200Z,30.60
2023-05-11T10:13:55.969Z,32.77
2023-05-11T10:18:57.729Z,34.40
2023-05-11T10:24:00.845Z,30.47
2023-05-11T10:29:02.877Z,29.20
2023-05-11T10:34:04.922Z,28.13
2023-05-11T10:39:07.993Z,25.83
2023-05-11T10:44:32.231Z,29.70
2023-05-11T10:49:43.112Z,26.27
2023-05-11T10:54:52.350Z,27.80
2023-05-11T11:00:16.924Z,28.20
2023-05-11T11:05:32.704Z,23.80
2023-05-11T11:10:36.578Z,27.57
2023-05-11T11:16:08.150Z,24.40
2023-05-11T11:21:13.765Z,25.10
2023-05-11T11:26:19.303Z,25.90
2023-05-11T11:31:25.394Z,24.57
2023-05-11T11:37:03.414Z,24.83
2023-05-11T11:42:08.061Z,24.50
2023-05-11T11:47:13.729Z,24.43
2023-05-11T11:52:32.763Z,23.53
2023-05-11T11:57:49.218Z,23.23
2023-05-11T12:02:50.992Z,25.17
2023-05-11T12:07:53.320Z,24.07
2023-05-11T12:12:59.801Z,25.53
2023-05-11T12:18:03.244Z,28.50
2023-05-11T12:23:05.011Z,27.97
2023-05-11T12:28:08.183Z,27.60
2023-05-11T12:33:09.952Z,25.53
2023-05-11T12:38:11.888Z,26.10
2023-05-11T12:43:18.006Z,25.53
2023-05-11T12:48:19.697Z,26.60
2023-05-11T12:53:21.418Z,28.53
2023-05-11T12:58:24.435Z,30.80
2023-05-11T13:03:27.150Z,28.23
2023-05-11T13:08:29.302Z,26.13
2023-05-11T13:13:32.500Z,29.33
2023-05-11T13:18:34.318Z,31.23
2023-05-11T13:23:36.941Z,25.30
2023-05-11T13:28:40.053Z,24.63
2023-05-11T13:33:41.762Z,29.57
2023-05-11T13:38:43.557Z,24.67
2023-05-11T13:43:48.622Z,23.10
2023-05-11T13:48:50.325Z,24.03
2023-05-11T13:53:52.028Z,20.47
2023-05-11T13:58:55.866Z,21.37
2023-05-11T14:03:58.996Z,25.03
2023-05-11T14:09:00.721Z,21.80
2023-05-11T14:14:03.744Z,22.73
2023-05-11T14:19:05.516Z,21.00
2023-05-11T14:24:12.606Z,14.20
2023-05-11T14:29:15.901Z,12.93
2023-05-11T14:34:18.179Z,15.37
2023-05-11T14:39:19.906Z,14.63
2023-05-11T14:44:24.684Z,16.63
2023-05-11T14:49:26.448Z,16.10
2023-05-11T14:54:28.173Z,16.20
2023-05-11T14:59:31.243Z,19.50
2023-05-11T15:04:33.475Z,18.27
2023-05-11T15:09:35.883Z,19.07
2023-05-11T15:14:38.934Z,16.77
2023-05-11T15:19:40.676Z,17.00
2023-05-11T15:24:42.408Z,17.03
2023-05-11T15:29:45.502Z,16.80
2023-05-11T15:34:58.591Z,17.23
2023-05-11T15:40:01.747Z,15.93
2023-05-11T15:45:06.352Z,17.03
2023-05-11T15:50:09.252Z,18.90
2023-05-11T15:55:10.928Z,19.73
2023-05-11T16:00:15.462Z,17.83
2023-05-11T16:05:17.320Z,18.17
2023-05-11T16:10:19.327Z,19.03
2023-05-11T16:15:22.768Z,19.00
2023-05-11T16:20:24.494Z,18.40
2023-05-11T16:25:26.408Z,17.77
2023-05-11T16:30:30.572Z,19.90
2023-05-11T16:35:32.740Z,17.97
2023-05-11T16:40:34.483Z,20.77
2023-05-11T16:45:37.562Z,27.30
2023-05-11T16:50:39.315Z,23.43
2023-05-11T16:55:41.708Z,31.70
2023-05-11T17:00:44.753Z,24.90
2023-05-11T17:05:46.558Z,30.80
2023-05-11T17:10:48.316Z,24.53
2023-05-11T17:15:55.969Z,30.07
2023-05-11T17:20:57.773Z,21.53
2023-05-11T17:25:59.670Z,7.60
2023-05-11T17:31:08.758Z,6.47
2023-05-11T17:36:11.660Z,12.63
2023-05-11T17:41:14.427Z,7.63
2023-05-11T17:46:17.532Z,11.77
2023-05-11T17:51:20.253Z,10.37
2023-05-11T17:56:22.246Z,12.77
2023-05-11T18:01:27.355Z,12.30
2023-05-11T18:06:29.167Z,11.70
2023-05-11T18:11:31.078Z,13.30
2023-05-11T18:16:34.587Z,19.77
2023-05-11T18:21:36.666Z,11.43
2023-05-11T18:26:39.345Z,13.03
2023-05-11T18:31:42.469Z,10.83
2023-05-11T18:36:44.206Z,10.20
2023-05-11T18:41:45.929Z,10.67
2023-05-11T18:46:49.089Z,10.10
2023-05-11T18:51:50.901Z,11.23
2023-05-11T18:56:52.898Z,11.27
2023-05-11T19:01:56.126Z,12.40
2023-05-11T19:06:58.686Z,11.53
2023-05-11T19:12:00.500Z,15.40
2023-05-11T19:17:05.079Z,13.43
2023-05-11T19:22:09.109Z,16.90
2023-05-11T19:27:11.206Z,13.70
2023-05-11T19:32:14.576Z,13.83
2023-05-11T19:37:16.403Z,16.80
2023-05-11T19:42:23.536Z,18.90
2023-05-11T19:47:31.889Z,18.60
2023-05-11T19:52:33.686Z,18.90
2023-05-11T19:57:37.381Z,19.70
2023-05-11T20:02:40.653Z,18.47
2023-05-11T20:07:42.969Z,19.80
2023-05-11T20:12:44.825Z,17.47
2023-05-11T20:17:48.945Z,22.10
2023-05-11T20:22:50.688Z,17.90
2023-05-11T20:27:52.831Z,19.10
2023-05-11T20:38:01.199Z,19.00
2023-05-11T20:43:03.628Z,20.50
2023-05-11T20:48:06.887Z,20.23
2023-05-11T20:53:08.674Z,23.23
2023-05-11T20:58:10.946Z,23.03
2023-05-11T21:03:14.131Z,20.30
2023-05-11T21:08:15.937Z,20.87
2023-05-11T21:13:17.671Z,21.10
2023-05-11T21:18:20.809Z,21.20
2023-05-11T21:23:22.613Z,22.00
2023-05-11T21:28:27.148Z,21.70
2023-05-11T21:33:30.310Z,20.77
2023-05-11T21:38:32.303Z,21.67
2023-05-11T21:43:34.135Z,22.87
2023-05-11T21:48:37.262Z,23.27
2023-05-11T21:53:39.227Z,21.63
2023-05-11T21:58:41.608Z,23.63
2023-05-11T22:03:44.743Z,23.83
2023-05-11T22:08:46.566Z,26.10
2023-05-11T22:13:48.314Z,25.73
2023-05-11T22:18:51.394Z,24.00
2023-05-11T22:23:53.137Z,25.50
2023-05-11T22:28:54.931Z,23.70
2023-05-11T22:33:58.210Z,22.63
2023-05-11T22:38:59.915Z,22.80
2023-05-11T22:44:01.794Z,22.37
2023-05-11T22:49:04.876Z,21.60
2023-05-11T22:54:06.738Z,21.47
2023-05-11T22:59:08.649Z,20.40
2023-05-11T23:04:11.743Z,20.50
2023-05-11T23:09:13.523Z,21.70
2023-05-11T23:14:15.251Z,21.90
2023-05-11T23:19:18.448Z,20.10
2023-05-11T23:24:20.298Z,21.03
2023-05-11T23:29:22.050Z,21.10
2023-05-11T23:34:25.148Z,20.57
2023-05-11T23:39:26.852Z,19.83
2023-05-11T23:44:28.599Z,20.97
2023-05-11T23:49:31.723Z,20.60
2023-05-11T23:54:33.833Z,19.77
2023-05-11T23:59:35.636Z,20.73
